Arrowsmith, Illinois
Current Conditions -  °F | °C
As of 1:56 AM on Sunday 26 Oct 2014 (Local Time) from KBMI Reporting Station
Clear Clear  
Wind Chill: 12°   Ceiling: Unl
Heat Index: 12°   Visibility: 10mi
Dew Point:   Wind: 8mph
Humidity: 49%   Direction: 320°NW
Pressure: 30.04"   Gusts: NA
Location:  40.45°N, 88.63°W
Report Text: KBMI 260656Z AUTO 32007KT 10SM CLR 12/01 A3004 RMK AO2 T01160011 SLP167
Loading
Personal Weather Stations






























Interactive Weather Map
Tropical Storm Tracking
New forecast layout! Learn more

10-Day Weather Forecast

Advertisements
Track Severe Weather on mobile